Latest Coastal Weather Observations for Bundaberg

IDQ60701

Issued at 10:35 am EST Saturday 2 August 2014 (issued every 10 minutes, with the page automatically refreshed every 10 minutes)

About coastal observations | Map of coastal stations | Coastal observations for QLD | Marine services | Other Formats
Station Details ID: 039128 Name: BUNDABERG AERO Lat: -24.91 Lon: 152.32 Height: 30.82 m
Data from the previous 72 hours. | See also: Recent months at Bundaberg
Date/Time
EST
Temp

°C
Wind Pressure Rain
since 9am
mm
Weather Cloud Vis
km
Sea
Height
m
Swell
Dir
 
Speed
knots
Gust
knots
hPa Trend Height
m
Period
s
Dir
02/10:30am 18.8 S 10 14 1022.6 - 0.0 - - 10 - - - -
02/10:00am 18.1 SSW 12 16 1022.7 - 0.0 - - 10 - - - -
02/09:30am 17.0 SSW 12 17 1022.7 - 0.0 - - 10 - - - -
02/09:00am 16.6 SSW 11 17 1022.5 - 0.0 - - 10 - - - -
02/08:30am 16.2 SSW 10 14 1022.3 - 0.0 - - 10 - - - -
02/08:00am 15.2 SSW 7 11 1022.1 - 0.0 - - 10 - - - -
02/07:30am 14.5 SSW 7 10 1021.5 - 0.0 - - 10 - - - -
02/07:00am 13.8 SW 8 11 1020.9 - 0.0 - - 10 - - - -
02/06:30am 13.2 SW 6 8 1020.3 - 0.0 - - 10 - - - -
02/06:00am 13.9 SW 7 11 1019.8 - 0.0 - - 10 - - - -
02/05:30am 14.0 SSW 5 8 1019.5 - 0.0 - - 10 - - - -
02/05:00am 14.2 SSW 5 7 1019.1 - 0.0 - Partly cloudy 10 - - - -
02/04:30am 15.1 SSW 6 8 1018.6 - 0.0 - Partly cloudy 10 - - - -
02/04:00am 15.3 SW 7 9 1018.1 - 0.0 - Partly cloudy 10 - - - -
02/03:30am 16.1 SW 7 10 1017.9 - 0.0 - - 10 - - - -
02/03:00am 16.9 SW 8 11 1017.6 - 0.0 - - 10 - - - -
02/02:30am 17.0 WSW 6 9 1017.5 - 0.0 - - 10 - - - -
02/02:00am 16.5 W 6 8 1017.5 - 0.0 - - 10 - - - -
02/01:30am 17.1 W 4 6 1017.4 - 0.0 - Partly cloudy 10 - - - -
02/01:00am 17.2 NW 5 6 1016.8 - 0.0 - Cloudy 10 - - - -
02/12:30am 16.7 NNW 6 7 1016.5 - 0.0 - Partly cloudy 10 - - - -
02/12:00am 17.6 NNW 8 9 1016.3 - 0.0 - Partly cloudy 10 - - - -
 
Date/Time
EST
Temp

°C
Wind Pressure Rain
since 9am
mm
Weather Cloud Vis
km
Sea
Height
m
Swell
Dir
 
Speed
knots
Gust
knots
hPa Trend Height
m
Period
s
Dir
01/11:30pm 18.1 N 9 11 1016.5 - 0.0 - Partly cloudy 10 - - - -
01/11:00pm 18.0 N 8 9 1016.8 - 0.0 - Partly cloudy 10 - - - -
01/10:30pm 18.1 N 9 10 1016.8 - 0.0 - Partly cloudy 10 - - - -
01/10:00pm 18.3 N 9 11 1016.9 - 0.0 - - 10 - - - -
01/09:30pm 18.9 N 11 13 1016.9 - 0.0 - Partly cloudy 10 - - - -
01/09:00pm 18.7 N 10 13 1016.6 - 0.0 - - 10 - - - -
01/08:30pm 18.7 NNW 10 11 1016.5 - 0.0 - - 10 - - - -
01/08:00pm 19.3 NNW 13 16 1016.1 - 0.0 - - 10 - - - -
01/07:30pm 19.2 NNW 12 14 1015.7 - 0.0 - - 10 - - - -
01/07:00pm 19.3 N 11 13 1015.4 - 0.0 - - 10 - - - -
01/06:30pm 19.8 N 11 14 1015.1 - 0.0 - - 10 - - - -
01/06:00pm 20.1 N 11 13 1014.6 - 0.0 - - 10 - - - -
01/05:30pm 20.8 N 12 16 1014.5 - 0.0 - - 10 - - - -
01/05:00pm 21.7 N 12 16 1014.3 - 0.0 - - 10 - - - -
01/04:30pm 22.7 N 14 17 1014.1 - 0.0 - Partly cloudy 10 - - - -
01/04:00pm 23.9 N 15 19 1014.0 - 0.0 - Partly cloudy 10 - - - -
01/03:30pm 23.6 N 15 19 1013.8 - 0.0 - Partly cloudy 10 - - - -
01/03:00pm 25.8 N 15 19 1013.6 - 0.0 - Mostly clear 10 - - - -
01/02:30pm 24.3 N 13 16 1014.0 - 0.0 - - 10 - - - -
01/02:00pm 26.3 N 13 18 1014.2 - 0.0 - Partly cloudy 10 - - - -
01/01:30pm 26.5 N 13 18 1014.5 - 0.0 - Partly cloudy 10 - - - -
01/01:00pm 26.4 N 13 16 1014.8 - 0.0 - - 10 - - - -
01/12:30pm 26.0 N 13 17 1015.4 - 0.0 - - 10 - - - -
01/12:00pm 26.1 N 13 16 1016.0 - 0.0 - - 10 - - - -
01/11:30am 25.6 N 13 18 1016.7 - 0.0 - - 10 - - - -
01/11:00am 25.7 NNW 13 17 1017.0 - 0.0 - - 10 - - - -
01/10:30am 24.9 NNW 14 17 1017.4 - 0.0 - - 10 - - - -
01/10:00am 23.6 NNW 13 16 1018.0 - 0.0 - Partly cloudy 10 - - - -
01/09:30am 22.4 NNW 10 13 1018.3 - 0.0 - Partly cloudy 10 - - - -
01/09:00am 20.6 NW 7 9 1018.3 - 0.0 - - 10 - - - -
01/08:30am 19.1 NW 5 7 1018.3 - 0.0 - - 10 - - - -
01/08:00am 16.8 CALM 0 0 1018.2 - 0.0 - - 10 - - - -
01/07:30am 14.0 CALM 0 0 1018.2 - 0.0 - - 10 - - - -
01/07:20am 13.4 CALM 0 0 1018.1 - 0.0 - Partly cloudy 10 - - - -
01/07:11am 13.0 CALM 0 2 1018.0 - 0.0 - Partly cloudy 7 - - - -
01/07:06am 12.6 W 1 3 1017.9 - 0.0 - Partly cloudy 1 - - - -
01/07:00am 12.3 W 3 4 1017.9 - 0.0 - Partly cloudy 0.2 - - - -
01/06:52am 12.2 W 4 5 1017.9 - 0.0 - Partly cloudy 0.1 - - - -
01/06:38am 11.7 CALM 0 0 1017.8 - 0.0 - Partly cloudy 0.7 - - - -
01/06:31am 11.8 W 2 3 1017.7 - 0.0 - Partly cloudy 3 - - - -
01/06:30am 11.8 W 2 3 1017.7 - 0.0 - Partly cloudy 3 - - - -
01/06:24am 11.7 W 3 3 1017.7 - 0.0 - - 1 - - - -
01/06:00am 12.1 W 3 3 1017.5 - 0.0 - - 0.6 - - - -
01/05:48am 12.3 W 4 5 1017.4 - 0.0 - - 0.9 - - - -
01/05:37am 12.7 WNW 4 5 1017.3 - 0.0 - - 5 - - - -
01/05:30am 12.3 WNW 5 6 1017.3 - 0.0 - - 8 - - - -
01/05:00am 12.7 WNW 5 6 1017.1 - 0.0 - - 8 - - - -
01/04:48am 13.6 WNW 4 5 1017.0 - 0.0 - - 10 - - - -
01/04:32am 13.6 NNW 4 5 1016.9 - 0.0 - - 1 - - - -
01/04:30am 13.5 NNW 4 5 1016.9 - 0.0 - - 0.8 - - - -
01/04:00am 12.4 CALM 0 0 1016.8 - 0.0 - - 0.1 - - - -
01/03:40am 13.6 CALM 0 0 1016.9 - 0.0 - - 1 - - - -
01/03:30am 13.7 CALM 0 0 1016.9 - 0.0 - - 3 - - - -
01/03:19am 13.8 CALM 0 0 1017.0 - 0.0 - Partly cloudy 4 - - - -
01/03:00am 13.6 N 3 5 1017.3 - 0.0 - Partly cloudy 10 - - - -
01/02:30am 13.4 N 1 5 1017.6 - 0.0 - Partly cloudy 8 - - - -
01/02:00am 13.7 CALM 0 0 1017.9 - 0.0 - Cloudy 10 - - - -
01/01:30am 13.6 ENE 3 5 1018.1 - 0.0 - Partly cloudy 10 - - - -
01/01:00am 14.3 NW 5 6 1018.2 - 0.0 - - 10 - - - -
01/12:59am 14.3 NW 5 6 1018.2 - 0.0 - - 10 - - - -
01/12:44am 14.9 NW 4 5 1018.3 - 0.0 - - 1 - - - -
01/12:32am 14.8 NW 4 4 1018.4 - 0.0 - - 0.9 - - - -
01/12:30am 14.8 NW 4 4 1018.4 - 0.0 - - 1 - - - -
01/12:23am 15.0 NW 4 4 1018.5 - 0.0 - - 5 - - - -
01/12:00am 14.8 NW 3 3 1018.6 - 0.0 - - 10 - - - -
 
Date/Time
EST
Temp

°C
Wind Pressure Rain
since 9am
mm
Weather Cloud Vis
km
Sea
Height
m
Swell
Dir
 
Speed
knots
Gust
knots
hPa Trend Height
m
Period
s
Dir
31/11:30pm 14.8 W 4 5 1018.7 - 0.0 - Partly cloudy 10 - - - -
31/11:00pm 14.9 W 5 5 1018.7 - 0.0 - Partly cloudy 10 - - - -
31/10:30pm 15.7 NNW 5 6 1018.6 - 0.0 - - 10 - - - -
31/10:00pm 15.5 NNW 5 6 1018.7 - 0.0 - Partly cloudy 10 - - - -
31/09:30pm 17.4 N 4 5 1018.6 - 0.0 - Partly cloudy 10 - - - -
31/09:00pm 17.6 WNW 4 5 1018.6 - 0.0 - Mostly cloudy 10 - - - -
31/08:30pm 19.0 N 6 8 1018.5 - 0.0 - Cloudy 10 - - - -
31/08:00pm 19.2 NNE 7 8 1018.1 - 0.0 - Cloudy 10 - - - -
31/07:30pm 19.3 NNE 7 8 1018.0 - 0.0 - Cloudy 10 - - - -
31/07:00pm 19.4 NNE 6 8 1017.8 - 0.0 - Cloudy 10 - - - -
31/06:30pm 19.4 NNE 7 10 1017.7 - 0.0 - Cloudy 10 - - - -
31/06:00pm 19.9 NNE 7 9 1017.6 - 0.0 - Cloudy 10 - - - -
31/05:30pm 20.2 NNE 7 9 1017.4 - 0.0 - Cloudy 10 - - - -
31/05:00pm 20.3 NNE 9 11 1017.5 - 0.0 - Cloudy 10 - - - -
31/04:30pm 20.5 NNE 8 11 1017.5 - 0.0 - Cloudy 10 - - - -
31/04:00pm 20.7 NNE 10 12 1017.4 - 0.0 - Cloudy 10 - - - -
31/03:30pm 21.1 NNE 11 15 1017.4 - 0.0 - Cloudy 10 - - - -
31/03:00pm 22.0 N 12 15 1017.5 - 0.0 - Cloudy 10 - - - -
31/02:30pm 22.7 N 11 14 1017.5 - 0.0 - Partly cloudy 10 - - - -
31/02:00pm 22.9 N 9 14 1017.7 - 0.0 - Partly cloudy 10 - - - -
31/01:30pm 23.9 NNE 9 13 1018.2 - 0.0 - Partly cloudy 10 - - - -
31/01:00pm 22.8 NNE 10 13 1018.7 - 0.0 - Partly cloudy 10 - - - -
31/12:30pm 23.3 NNE 7 11 1019.2 - 0.0 - Partly cloudy 10 - - - -
31/12:00pm 23.8 N 6 10 1019.7 - 0.0 - Cloudy 10 - - - -
31/11:30am 22.9 SE 2 4 1020.1 - 0.0 - - 10 - - - -
31/11:00am 22.6 NNW 3 8 1020.8 - 0.0 - - 10 - - - -
31/10:30am 22.0 SW 3 6 1021.5 - 0.0 - - 10 - - - -
31/10:00am 20.7 S 3 5 1021.8 - 0.0 - - 10 - - - -
31/09:30am 19.3 S 5 7 1021.9 - 0.0 - - 10 - - - -
31/09:00am 18.1 S 5 7 1021.9 - 0.0 - - 10 - - - -
31/08:30am 15.9 S 4 5 1022.2 - 0.0 - - 10 - - - -
31/08:00am 13.6 S 3 4 1022.0 - 0.0 - - 10 - - - -
31/07:30am 11.9 S 3 4 1021.7 - 0.0 - - 10 - - - -
31/07:00am 9.9 S 4 5 1021.4 - 0.0 - - 10 - - - -
31/06:30am 8.4 CALM 0 0 1020.9 - 0.0 - - 10 - - - -
31/06:00am 8.9 CALM 0 0 1020.8 - 0.0 - - 10 - - - -
31/05:30am 9.1 CALM 0 0 1020.7 - 0.0 - - 10 - - - -
31/05:00am 9.2 S 2 4 1020.5 - 0.0 - - 10 - - - -
31/04:30am 9.2 CALM 0 3 1020.4 - 0.0 - - 10 - - - -
31/04:00am 9.1 SSE 4 5 1020.5 - 0.0 - - 10 - - - -
31/03:30am 9.3 SSE 3 5 1020.4 - 0.0 - - 10 - - - -
31/03:00am 9.5 SSW 3 5 1020.3 - 0.0 - - 10 - - - -
31/02:51am 10.0 WSW 2 5 1020.2 - 0.0 - - 10 - - - -
31/02:41am 10.2 CALM 0 0 1020.3 - 0.0 - - 5 - - - -
31/02:30am 10.3 CALM 0 0 1020.4 - 0.0 - - 10 - - - -
31/02:00am 10.2 CALM 0 0 1020.6 - 0.0 - - 10 - - - -
31/01:30am 10.5 CALM 0 0 1020.7 - 0.0 - - 10 - - - -
31/01:00am 11.3 CALM 0 0 1020.9 - 0.0 - - 10 - - - -
31/12:30am 11.5 WSW 1 3 1021.0 - 0.0 - - 10 - - - -
31/12:00am 11.7 W 3 4 1021.0 - 0.0 - - 10 - - - -
 
Date/Time
EST
Temp

°C
Wind Pressure Rain
since 9am
mm
Weather Cloud Vis
km
Sea
Height
m
Swell
Dir
 
Speed
knots
Gust
knots
hPa Trend Height
m
Period
s
Dir
30/11:30pm 12.0 WSW 1 4 1021.2 - 0.0 - - 10 - - - -
30/11:00pm 13.6 W 4 5 1021.4 - 0.0 - - 10 - - - -
30/10:30pm 13.3 NNW 4 6 1021.4 - 0.0 - - 10 - - - -
30/10:00pm 14.6 WNW 4 5 1021.6 - 0.0 - - 10 - - - -
30/09:30pm 13.4 NW 4 5 1021.6 - 0.0 - - 10 - - - -
30/09:00pm 14.8 N 3 3 1021.6 - 0.0 - - 10 - - - -
30/08:30pm 15.4 NNW 4 4 1021.5 - 0.0 - - 10 - - - -
30/08:00pm 15.0 N 5 5 1021.3 - 0.0 - - 10 - - - -
30/07:30pm 17.0 N 5 7 1021.1 - 0.0 - - 10 - - - -
30/07:00pm 17.0 NNE 6 7 1020.8 - 0.0 - - 10 - - - -
30/06:30pm 17.7 N 6 7 1020.5 - 0.0 - - 10 - - - -
30/06:00pm 18.8 N 7 10 1020.2 - 0.0 - - 10 - - - -
30/05:30pm 20.0 N 8 10 1019.9 - 0.0 - - 10 - - - -
30/05:00pm 21.3 N 10 13 1019.7 - 0.0 - - 10 - - - -
30/04:30pm 22.2 N 12 15 1019.4 - 0.0 - - 10 - - - -
30/04:00pm 23.0 N 13 16 1019.2 - 0.0 - - 10 - - - -
30/03:30pm 23.9 N 12 14 1019.1 - 0.0 - - 10 - - - -
30/03:00pm 24.1 NNE 12 14 1019.2 - 0.0 - - 10 - - - -
30/02:30pm 24.3 N 11 15 1019.4 - 0.0 - - 10 - - - -
30/02:00pm 25.1 N 11 15 1019.7 - 0.0 - - 10 - - - -
30/01:30pm 24.3 N 11 16 1020.2 - 0.0 - - 10 - - - -
30/01:00pm 24.9 N 10 15 1020.6 - 0.0 - Partly cloudy 10 - - - -
30/12:30pm 24.4 N 8 13 1021.2 - 0.0 - Partly cloudy 10 - - - -
30/12:00pm 25.1 N 7 11 1021.9 - 0.0 - - 10 - - - -
30/11:30am 23.4 NNW 6 11 1022.6 - 0.0 - - 10 - - - -
30/11:00am 23.4 NW 8 11 1023.1 - 0.0 - - 10 - - - -

Other Formats:

Comma delimited format used in spreadsheet applications
http://www.bom.gov.au/fwo/IDQ60701/IDQ60701.94387.axf

JavaScript Object Notation format (JSON) in row-major order
http://www.bom.gov.au/fwo/IDQ60701/IDQ60701.94387.json